ESTA

Ängelholm-Helsingborg Airport

Ängelholm, Sweden
METAR ESTA 181450Z 08007KT 9999 BKN008 01/M00 Q0989
Observed Flight Rules
Jan-18 @ 14:50 UTC (42 minutes ago) Instrument Flight Rules
Wind Visibility Clouds
80° at 7 knots 10,000+ meters
  • Broken at 800' AGL
Temperatures Readings
Current 1°C / 34°F
Dewpoint 0°C / 32°F
Humidity 93%
Altimeter 29.2" Hg
Pressure 989 hPa
Elevation 47
METAR ESTA 181450Z 08007KT 9999 BKN008 01/M00 Q0989
Observed Flight Rules
Jan-18 @ 14:50 UTC
(42 minutes ago)
IFR
Wind Visibility
80° at 7 knots 10,000+ meters
Clouds
  • Broken at 800' AGL
Temperature Dewpoint
1°C / 34°F 0°C / 32°F
Humidity Altimeter Pressure
93% 29.2" Hg 989 hPa